Time;durP1;ratioP1;P1;durP2;ratioP2;P2;SDS_P1;SDS_P2;PMS_P1;PMS_P2;Temp;Humidity;BMP_temperature;BMP_pressure;BME280_temperature;BME280_humidity;BME280_pressure;Samples;Min_cycle;Max_cycle;Signal;HPM_P1;HPM_P2
2023/05/30 00:01:13;;;;;;;21.20;4.15;;;11.30;99.90;;;;;;5009757;28;20049;-62
2023/05/30 00:03:39;;;;;;;15.07;3.80;;;11.30;99.90;;;;;;5039174;28;20037;-62
2023/05/30 00:06:05;;;;;;;14.77;3.90;;;11.30;99.90;;;;;;5047423;28;20025;-63
2023/05/30 00:08:31;;;;;;;14.18;4.35;;;11.30;99.90;;;;;;5036294;28;20399;-62
2023/05/30 00:10:56;;;;;;;17.08;4.10;;;11.30;99.90;;;;;;5034053;28;20558;-62
2023/05/30 00:13:22;;;;;;;15.57;4.32;;;11.40;99.90;;;;;;5034267;28;20116;-62
2023/05/30 00:15:49;;;;;;;14.63;4.07;;;11.40;99.90;;;;;;5042949;28;20376;-62
2023/05/30 00:18:14;;;;;;;17.08;3.80;;;11.40;99.90;;;;;;5041132;28;20132;-62
2023/05/30 00:20:44;;;;;;;13.55;4.20;;;11.50;99.90;;;;;;5034999;28;20465;-62
2023/05/30 00:23:10;;;;;;;14.00;3.78;;;11.50;99.90;;;;;;5019089;28;20037;-62
2023/05/30 00:25:37;;;;;;;17.33;4.20;;;11.60;99.90;;;;;;5035021;28;20121;-62
2023/05/30 00:28:06;;;;;;;18.42;4.13;;;11.60;99.90;;;;;;5039551;28;20068;-61
2023/05/30 00:30:33;;;;;;;14.80;4.18;;;11.60;99.90;;;;;;5042489;28;20029;-62
2023/05/30 00:32:59;;;;;;;13.23;4.15;;;11.60;99.90;;;;;;5042019;28;20060;-62
2023/05/30 00:35:25;;;;;;;19.70;4.40;;;11.60;99.90;;;;;;5041471;22;20053;-65
2023/05/30 00:37:50;;;;;;;9.80;3.50;;;11.60;99.90;;;;;;5042189;28;20045;-65
2023/05/30 00:40:16;;;;;;;13.48;4.03;;;11.70;99.90;;;;;;5054172;28;20156;-64
2023/05/30 00:42:42;;;;;;;15.07;4.00;;;11.70;99.90;;;;;;5038739;28;20033;-64
2023/05/30 00:45:08;;;;;;;15.77;4.22;;;11.80;99.90;;;;;;5059457;28;20044;-63
2023/05/30 00:47:34;;;;;;;15.85;4.05;;;11.80;99.90;;;;;;5061212;28;20111;-64
2023/05/30 00:50:00;;;;;;;17.17;4.07;;;11.80;99.90;;;;;;5057156;28;20055;-64
2023/05/30 00:52:26;;;;;;;9.85;3.45;;;11.80;99.90;;;;;;5046152;28;20033;-64
2023/05/30 00:54:53;;;;;;;16.02;3.92;;;11.80;99.90;;;;;;5062294;28;20032;-62
2023/05/30 00:57:18;;;;;;;17.65;4.10;;;11.90;99.90;;;;;;5042507;28;20108;-62
2023/05/30 00:59:45;;;;;;;14.25;4.15;;;11.80;99.90;;;;;;5041399;28;20095;-62
2023/05/30 01:02:11;;;;;;;13.13;4.45;;;11.80;99.90;;;;;;5058803;28;20080;-62
2023/05/30 01:04:37;;;;;;;9.98;3.50;;;11.80;99.90;;;;;;5053390;28;20064;-62
2023/05/30 01:07:04;;;;;;;16.13;4.22;;;11.90;99.90;;;;;;5038631;28;20039;-62
2023/05/30 01:09:30;;;;;;;15.45;3.95;;;11.90;99.90;;;;;;5059678;28;20028;-60
2023/05/30 01:12:00;;;;;;;14.32;4.18;;;11.90;99.90;;;;;;5040418;28;20503;-62
2023/05/30 01:14:36;;;;;;;14.90;4.00;;;11.90;99.90;;;;;;5030576;28;20068;-62
2023/05/30 01:17:20;;;;;;;14.48;4.90;;;11.90;99.90;;;;;;5055109;28;20042;-61
2023/05/30 01:20:10;;;;;;;14.45;4.40;;;11.90;99.90;;;;;;5038367;28;20032;-61
2023/05/30 01:23:06;;;;;;;11.05;4.15;;;11.90;99.90;;;;;;5047871;28;20581;-64
2023/05/30 01:25:35;;;;;;;11.80;4.20;;;11.90;99.90;;;;;;5014149;28;20066;-64
2023/05/30 01:28:15;;;;;;;14.88;5.25;;;11.90;99.90;;;;;;5021442;28;20037;-64
2023/05/30 01:30:44;;;;;;;12.50;4.45;;;12.00;99.90;;;;;;5032283;28;20427;-62
2023/05/30 01:33:12;;;;;;;16.13;4.95;;;11.90;99.90;;;;;;5038561;28;20037;-62
2023/05/30 01:35:38;;;;;;;14.25;4.30;;;12.00;99.90;;;;;;5039489;28;20041;-63
2023/05/30 01:38:03;;;;;;;12.45;4.95;;;11.90;99.90;;;;;;5061082;28;20512;-62
2023/05/30 01:40:30;;;;;;;16.17;5.30;;;12.00;99.90;;;;;;5042682;28;20036;-62
2023/05/30 01:43:06;;;;;;;19.30;5.50;;;12.00;99.90;;;;;;5043794;28;20036;-62
2023/05/30 01:46:02;;;;;;;12.88;4.70;;;12.00;99.90;;;;;;5056573;28;20036;-63
2023/05/30 01:48:34;;;;;;;13.57;4.70;;;12.00;99.90;;;;;;5049108;28;20029;-62
2023/05/30 01:51:03;;;;;;;17.10;5.38;;;12.00;99.90;;;;;;5045002;28;20102;-62
2023/05/30 01:53:38;;;;;;;18.15;5.05;;;12.00;99.90;;;;;;5057525;28;20040;-62
2023/05/30 01:56:06;;;;;;;13.13;4.50;;;12.00;99.90;;;;;;5060907;28;20076;-62
2023/05/30 01:58:34;;;;;;;11.88;4.45;;;12.00;99.90;;;;;;5052640;28;20037;-62
2023/05/30 02:01:00;;;;;;;15.25;4.43;;;12.00;99.90;;;;;;5066185;28;20486;-62
2023/05/30 02:03:28;;;;;;;15.88;4.18;;;12.00;99.90;;;;;;5047178;28;20394;-62
2023/05/30 02:05:54;;;;;;;10.65;3.90;;;12.00;99.90;;;;;;5038762;28;20037;-62
2023/05/30 02:08:20;;;;;;;15.77;4.32;;;12.00;99.90;;;;;;5058088;28;20058;-62
2023/05/30 02:10:46;;;;;;;14.68;4.20;;;12.00;99.90;;;;;;5036984;28;20037;-62
2023/05/30 02:13:12;;;;;;;11.10;3.83;;;12.00;99.90;;;;;;5037687;28;20402;-62
2023/05/30 02:15:38;;;;;;;11.48;4.65;;;12.00;99.90;;;;;;5041209;28;20047;-61
2023/05/30 02:18:05;;;;;;;12.98;4.13;;;12.00;99.90;;;;;;5038351;28;20036;-63
2023/05/30 02:20:31;;;;;;;11.20;3.85;;;12.00;99.90;;;;;;5041442;28;20044;-62
2023/05/30 02:22:56;;;;;;;15.90;4.10;;;12.00;99.90;;;;;;5059057;28;20033;-62
2023/05/30 02:25:23;;;;;;;10.68;4.05;;;12.10;99.90;;;;;;5063619;28;20170;-60
2023/05/30 02:27:50;;;;;;;12.68;3.90;;;12.00;99.90;;;;;;5041960;28;20037;-63
2023/05/30 02:30:16;;;;;;;13.05;4.25;;;12.00;99.90;;;;;;5057072;28;20512;-61
2023/05/30 02:32:42;;;;;;;15.35;3.90;;;12.00;99.90;;;;;;5056171;28;20072;-62
2023/05/30 02:35:08;;;;;;;12.25;3.75;;;12.00;99.90;;;;;;5062933;28;20548;-62
2023/05/30 02:37:34;;;;;;;14.02;4.00;;;12.00;99.90;;;;;;5032006;28;20037;-63
2023/05/30 02:39:59;;;;;;;14.02;3.72;;;11.90;99.90;;;;;;5034664;28;20037;-63
2023/05/30 02:42:25;;;;;;;11.40;3.53;;;12.00;99.90;;;;;;5036117;28;20116;-62
2023/05/30 02:44:50;;;;;;;15.27;4.32;;;12.00;99.90;;;;;;5059862;28;20135;-62
2023/05/30 02:47:16;;;;;;;13.85;3.55;;;12.00;99.90;;;;;;5033921;28;20041;-63
2023/05/30 02:49:42;;;;;;;12.13;3.67;;;11.90;99.90;;;;;;5047629;28;20457;-62
2023/05/30 02:52:08;;;;;;;13.18;3.80;;;11.90;99.90;;;;;;5033725;28;20404;-62
2023/05/30 02:54:34;;;;;;;9.57;3.65;;;11.90;99.90;;;;;;5051020;28;20036;-63
2023/05/30 02:57:00;;;;;;;14.23;4.07;;;11.90;99.90;;;;;;5051425;28;20052;-63
2023/05/30 02:59:25;;;;;;;15.43;4.32;;;11.90;99.90;;;;;;5040000;28;20065;-63
2023/05/30 03:01:51;;;;;;;15.68;3.95;;;11.90;99.90;;;;;;5059903;28;20051;-63
2023/05/30 03:04:17;;;;;;;11.10;3.70;;;11.90;99.90;;;;;;5034259;28;20033;-61
2023/05/30 03:06:42;;;;;;;15.27;4.30;;;11.90;99.90;;;;;;5055058;28;20037;-63
2023/05/30 03:09:08;;;;;;;11.55;3.80;;;11.90;99.90;;;;;;5059557;28;20100;-62
2023/05/30 03:11:34;;;;;;;12.25;3.97;;;11.90;99.90;;;;;;5058348;28;20394;-64
2023/05/30 03:13:59;;;;;;;11.73;3.78;;;11.90;99.90;;;;;;5040752;28;20498;-63
2023/05/30 03:16:26;;;;;;;9.80;3.40;;;11.90;99.90;;;;;;5041623;28;20041;-65
2023/05/30 03:18:52;;;;;;;11.60;4.53;;;11.90;99.90;;;;;;5060802;28;20040;-64
2023/05/30 03:21:17;;;;;;;10.93;3.90;;;11.90;99.90;;;;;;5052425;28;20506;-64
2023/05/30 03:23:43;;;;;;;15.50;4.60;;;11.90;99.90;;;;;;5059582;28;20120;-62
2023/05/30 03:26:08;;;;;;;11.98;4.00;;;11.80;99.90;;;;;;5044322;28;20041;-62
2023/05/30 03:28:34;;;;;;;11.13;3.80;;;11.90;99.90;;;;;;5040730;28;20375;-62
2023/05/30 03:31:00;;;;;;;10.57;3.53;;;11.90;99.90;;;;;;5056963;28;20532;-62
2023/05/30 03:33:28;;;;;;;13.77;4.35;;;11.90;99.90;;;;;;5039055;28;20074;-62
2023/05/30 03:35:54;;;;;;;12.68;4.22;;;11.90;99.90;;;;;;5040035;28;20036;-62
2023/05/30 03:38:20;;;;;;;10.68;3.90;;;11.90;99.90;;;;;;5051739;28;20069;-62
2023/05/30 03:40:46;;;;;;;10.82;3.78;;;11.90;99.90;;;;;;5057629;28;20503;-62
2023/05/30 03:43:12;;;;;;;12.63;4.10;;;11.90;99.90;;;;;;5035495;28;20051;-62
2023/05/30 03:45:37;;;;;;;14.32;4.28;;;11.90;99.90;;;;;;5057823;28;20398;-62
2023/05/30 03:48:03;;;;;;;12.80;4.82;;;11.90;99.90;;;;;;5063344;28;20055;-62
2023/05/30 03:50:28;;;;;;;15.32;4.47;;;11.90;99.90;;;;;;5041354;28;20119;-62
2023/05/30 03:52:54;;;;;;;14.65;4.63;;;11.90;99.90;;;;;;5018032;28;20044;-62
2023/05/30 03:55:20;;;;;;;14.63;4.13;;;11.90;99.90;;;;;;5059129;28;20043;-62
2023/05/30 03:57:46;;;;;;;11.80;4.15;;;11.90;99.90;;;;;;5059321;28;20135;-62
2023/05/30 04:00:12;;;;;;;12.82;4.30;;;11.90;99.90;;;;;;5031646;28;20040;-62
2023/05/30 04:02:38;;;;;;;14.48;4.70;;;12.00;99.90;;;;;;5016053;28;20090;-62
2023/05/30 04:05:05;;;;;;;12.18;4.05;;;12.00;99.90;;;;;;5048398;28;20033;-62
2023/05/30 04:07:33;;;;;;;12.65;4.18;;;12.00;99.90;;;;;;5058309;28;20037;-62
2023/05/30 04:09:59;;;;;;;12.70;4.22;;;12.00;99.90;;;;;;5037995;28;20414;-62
2023/05/30 04:12:24;;;;;;;11.40;4.55;;;12.00;99.90;;;;;;5032661;28;20067;-62
2023/05/30 04:14:50;;;;;;;11.02;4.28;;;12.00;99.90;;;;;;5064375;28;20141;-62
2023/05/30 04:17:16;;;;;;;10.35;3.88;;;12.00;99.90;;;;;;5041413;28;20395;-62
2023/05/30 04:19:41;;;;;;;12.95;4.38;;;12.00;99.90;;;;;;5039968;28;20041;-62
2023/05/30 04:22:08;;;;;;;17.83;4.68;;;12.10;99.90;;;;;;5044522;28;20041;-62
2023/05/30 04:24:33;;;;;;;11.73;4.20;;;12.10;99.90;;;;;;5057827;28;20036;-62
2023/05/30 04:27:00;;;;;;;13.57;4.43;;;12.20;99.90;;;;;;5055512;28;20045;-62
2023/05/30 04:29:26;;;;;;;15.02;4.47;;;12.10;99.90;;;;;;5040711;28;20041;-62
2023/05/30 04:31:51;;;;;;;12.65;4.70;;;12.20;99.90;;;;;;5041856;28;20558;-62
2023/05/30 04:34:17;;;;;;;13.32;4.60;;;12.20;99.90;;;;;;5042120;28;20117;-62
2023/05/30 04:36:44;;;;;;;13.98;4.60;;;12.20;99.90;;;;;;5033071;28;20033;-62
2023/05/30 04:39:10;;;;;;;10.65;3.97;;;12.20;99.90;;;;;;5035858;28;20513;-62
2023/05/30 04:41:36;;;;;;;13.70;4.63;;;12.20;99.90;;;;;;5050252;28;20445;-62
2023/05/30 04:44:03;;;;;;;13.25;4.22;;;12.30;99.90;;;;;;5032034;28;20032;-62
2023/05/30 04:46:29;;;;;;;19.88;4.57;;;12.30;99.90;;;;;;5062178;28;20044;-62
2023/05/30 04:48:58;;;;;;;10.55;3.97;;;12.30;99.90;;;;;;5036033;28;20128;-62
2023/05/30 04:51:24;;;;;;;12.43;4.28;;;12.30;99.90;;;;;;5044909;28;20043;-62
2023/05/30 04:53:50;;;;;;;16.08;4.25;;;12.30;99.90;;;;;;5048003;28;20120;-62
2023/05/30 04:56:16;;;;;;;19.58;4.65;;;12.40;99.90;;;;;;5058077;28;20095;-62
2023/05/30 04:58:48;;;;;;;18.38;5.15;;;12.40;99.90;;;;;;5035188;28;20072;-62
2023/05/30 05:01:15;;;;;;;16.38;4.47;;;12.40;99.90;;;;;;5061251;28;20044;-62
2023/05/30 05:03:41;;;;;;;13.10;4.20;;;12.50;99.90;;;;;;5056840;28;20498;-62
2023/05/30 05:06:07;;;;;;;12.30;4.05;;;12.50;99.90;;;;;;5060272;28;20402;-62
2023/05/30 05:08:35;;;;;;;16.25;4.03;;;12.50;99.90;;;;;;5040616;28;20059;-62
2023/05/30 05:11:02;;;;;;;12.63;4.32;;;12.50;99.90;;;;;;5054054;28;20068;-62
2023/05/30 05:13:27;;;;;;;16.17;4.38;;;12.50;99.90;;;;;;5053569;28;20037;-62
2023/05/30 05:15:54;;;;;;;14.15;4.40;;;12.50;99.90;;;;;;5053818;28;20094;-62
2023/05/30 05:18:19;;;;;;;14.18;4.35;;;12.50;99.90;;;;;;5033833;28;20501;-62
2023/05/30 05:20:45;;;;;;;9.77;3.88;;;12.50;99.90;;;;;;5038602;28;20041;-62
2023/05/30 05:23:11;;;;;;;19.02;4.43;;;12.50;99.90;;;;;;5053398;28;20047;-62
2023/05/30 05:25:36;;;;;;;16.75;4.97;;;12.60;99.90;;;;;;5060744;28;20029;-62
2023/05/30 05:28:02;;;;;;;13.02;4.60;;;12.60;99.90;;;;;;5064850;28;20454;-62
2023/05/30 05:30:27;;;;;;;14.55;4.32;;;12.60;99.90;;;;;;5042865;28;20040;-62
2023/05/30 05:32:53;;;;;;;12.35;4.03;;;12.60;99.90;;;;;;5052825;28;20047;-62
2023/05/30 05:35:19;;;;;;;15.80;4.05;;;12.60;99.90;;;;;;5055787;28;20033;-62
2023/05/30 05:37:44;;;;;;;14.60;4.55;;;12.70;99.90;;;;;;5053515;28;20168;-62
2023/05/30 05:40:10;;;;;;;18.35;4.43;;;12.70;99.90;;;;;;5053282;28;20032;-62
2023/05/30 05:42:36;;;;;;;14.65;4.00;;;12.70;99.90;;;;;;5056156;28;20124;-62
2023/05/30 05:45:02;;;;;;;14.85;4.55;;;12.70;99.90;;;;;;5062905;28;20028;-62
2023/05/30 05:47:28;;;;;;;11.77;3.90;;;12.80;99.90;;;;;;5058441;28;20061;-64
2023/05/30 05:49:53;;;;;;;15.35;4.30;;;12.90;99.90;;;;;;5032192;28;20069;-62
2023/05/30 05:52:20;;;;;;;16.25;4.20;;;12.90;99.90;;;;;;5028559;28;20094;-62
2023/05/30 05:54:46;;;;;;;17.20;4.38;;;12.90;99.90;;;;;;5048486;28;20124;-62
2023/05/30 05:57:11;;;;;;;14.57;3.90;;;12.90;99.90;;;;;;5056445;28;20123;-62
2023/05/30 05:59:37;;;;;;;14.40;4.15;;;13.00;99.90;;;;;;5051732;28;20048;-62
2023/05/30 06:02:03;;;;;;;13.32;4.07;;;13.00;99.90;;;;;;5035338;28;20403;-62
2023/05/30 06:04:29;;;;;;;16.33;4.57;;;13.00;99.90;;;;;;5032427;28;20041;-62
2023/05/30 06:06:54;;;;;;;13.52;4.00;;;13.10;99.90;;;;;;5037902;28;20041;-62
2023/05/30 06:09:20;;;;;;;13.02;4.07;;;13.10;99.90;;;;;;5039376;28;20483;-62
2023/05/30 06:11:45;;;;;;;15.07;4.40;;;13.20;99.90;;;;;;5063425;28;20075;-62
2023/05/30 06:14:12;;;;;;;12.82;3.97;;;13.20;99.90;;;;;;5059525;28;20531;-62
2023/05/30 06:16:37;;;;;;;13.70;4.38;;;13.30;99.90;;;;;;5047840;28;20398;-62
2023/05/30 06:19:03;;;;;;;15.50;4.30;;;13.40;99.90;;;;;;5028964;28;20049;-62
2023/05/30 06:21:29;;;;;;;15.35;4.65;;;13.40;99.90;;;;;;5065068;28;20036;-62
2023/05/30 06:23:54;;;;;;;12.43;4.60;;;13.50;99.90;;;;;;5047465;28;20047;-62
2023/05/30 06:26:20;;;;;;;13.52;4.00;;;13.50;99.90;;;;;;5039204;28;20040;-62
2023/05/30 06:28:51;;;;;;;15.73;4.38;;;13.60;99.90;;;;;;5055606;28;20482;-62
2023/05/30 06:31:17;;;;;;;12.18;3.92;;;13.60;99.90;;;;;;5038815;28;20067;-62
2023/05/30 06:33:43;;;;;;;11.07;4.05;;;13.70;99.90;;;;;;5060740;28;20071;-63
2023/05/30 06:36:10;;;;;;;10.43;3.80;;;13.70;99.90;;;;;;5042124;22;20037;-61
2023/05/30 06:38:36;;;;;;;9.70;3.95;;;13.70;99.90;;;;;;5026673;28;20079;-61
2023/05/30 06:41:01;;;;;;;12.40;3.85;;;13.70;99.90;;;;;;5063177;28;20127;-61
2023/05/30 06:43:27;;;;;;;12.77;3.78;;;13.80;99.90;;;;;;5061387;28;20146;-61
2023/05/30 06:45:53;;;;;;;17.20;3.95;;;13.80;99.90;;;;;;5030610;28;20052;-62
2023/05/30 06:48:18;;;;;;;12.52;3.60;;;13.90;99.90;;;;;;5022608;28;20033;-61
2023/05/30 06:50:44;;;;;;;12.20;4.15;;;13.90;99.90;;;;;;5041468;28;20471;-61
2023/05/30 06:53:09;;;;;;;9.75;3.53;;;13.90;99.90;;;;;;5050315;28;20146;-61
2023/05/30 06:55:35;;;;;;;11.77;3.70;;;14.00;99.90;;;;;;5023653;28;20103;-61
2023/05/30 06:58:01;;;;;;;8.73;3.53;;;14.00;99.90;;;;;;5032243;28;20495;-61
2023/05/30 07:00:27;;;;;;;12.60;3.25;;;14.00;99.90;;;;;;5041631;28;20033;-61
2023/05/30 07:02:52;;;;;;;13.70;3.92;;;14.00;99.90;;;;;;5041460;28;20047;-61
2023/05/30 07:05:18;;;;;;;11.07;3.38;;;14.00;99.90;;;;;;5047077;28;20462;-62
2023/05/30 07:07:44;;;;;;;8.82;3.50;;;14.10;99.90;;;;;;5041140;28;20092;-62
2023/05/30 07:10:10;;;;;;;12.68;3.65;;;14.10;99.90;;;;;;5049765;28;20040;-62
2023/05/30 07:12:36;;;;;;;11.32;3.70;;;14.10;99.90;;;;;;5041588;28;20033;-62
2023/05/30 07:15:02;;;;;;;9.52;3.28;;;14.10;99.90;;;;;;5049772;28;20041;-61
2023/05/30 07:17:28;;;;;;;9.20;3.63;;;14.10;99.90;;;;;;5035917;28;20041;-61
2023/05/30 07:19:53;;;;;;;7.57;3.35;;;14.10;99.90;;;;;;5032601;28;20030;-61
2023/05/30 07:22:19;;;;;;;11.27;3.22;;;14.10;99.90;;;;;;5046975;28;20049;-61
2023/05/30 07:24:45;;;;;;;9.43;3.10;;;14.10;99.90;;;;;;5040440;28;20029;-61
2023/05/30 07:27:10;;;;;;;7.97;3.10;;;14.20;99.90;;;;;;5049711;28;20171;-61
2023/05/30 07:29:36;;;;;;;11.07;3.42;;;14.20;99.90;;;;;;5035882;28;20388;-61
2023/05/30 07:32:02;;;;;;;8.63;3.00;;;14.20;99.90;;;;;;5048660;28;20044;-61
2023/05/30 07:34:28;;;;;;;7.38;3.08;;;14.10;99.90;;;;;;5040447;28;20037;-61
2023/05/30 07:36:53;;;;;;;9.75;3.30;;;14.20;99.90;;;;;;5041168;28;20095;-61
2023/05/30 07:39:19;;;;;;;8.73;3.08;;;14.20;99.90;;;;;;5042901;28;20502;-62
2023/05/30 07:41:45;;;;;;;9.52;3.33;;;14.20;99.90;;;;;;5042460;28;20091;-61
2023/05/30 07:44:10;;;;;;;7.85;2.88;;;14.10;99.90;;;;;;5025351;28;20073;-61
2023/05/30 07:46:36;;;;;;;11.73;3.40;;;14.10;99.90;;;;;;5046097;28;20109;-61
2023/05/30 07:49:02;;;;;;;8.90;3.30;;;14.20;99.90;;;;;;5038737;28;20449;-62
2023/05/30 07:51:27;;;;;;;7.55;3.13;;;14.10;99.90;;;;;;5043574;28;20047;-61
2023/05/30 07:53:53;;;;;;;5.88;2.97;;;14.10;99.90;;;;;;5044640;28;20037;-61
2023/05/30 07:56:18;;;;;;;8.65;3.25;;;14.20;99.90;;;;;;5043847;28;20036;-61
2023/05/30 07:58:45;;;;;;;7.63;2.90;;;14.20;99.90;;;;;;5043433;28;20287;-61
2023/05/30 08:01:10;;;;;;;8.80;2.97;;;14.20;99.90;;;;;;5021761;28;20055;-61
2023/05/30 08:03:36;;;;;;;7.50;3.10;;;14.20;99.90;;;;;;5014768;28;20037;-61
2023/05/30 08:06:04;;;;;;;9.50;3.00;;;14.30;99.90;;;;;;5040000;28;20048;-61
2023/05/30 08:08:30;;;;;;;10.63;2.95;;;14.30;99.90;;;;;;5043259;28;20036;-61
2023/05/30 08:10:56;;;;;;;5.65;2.90;;;14.30;99.90;;;;;;5026379;28;20037;-61
2023/05/30 08:13:28;;;;;;;8.00;3.00;;;14.30;99.90;;;;;;5044196;28;20503;-62
2023/05/30 08:15:54;;;;;;;6.15;3.00;;;14.30;99.90;;;;;;5045408;28;20041;-61
2023/05/30 08:18:21;;;;;;;9.00;3.22;;;14.30;99.90;;;;;;5045130;28;20372;-61
2023/05/30 08:20:47;;;;;;;8.52;3.28;;;14.20;99.90;;;;;;5037469;28;20045;-61
2023/05/30 08:23:13;;;;;;;9.57;2.75;;;14.20;99.90;;;;;;5045466;28;20384;-61
2023/05/30 08:25:42;;;;;;;6.28;2.78;;;14.20;99.90;;;;;;5040721;28;20029;-61
2023/05/30 08:28:10;;;;;;;10.07;3.50;;;14.20;99.90;;;;;;5009263;28;20044;-61
2023/05/30 08:30:36;;;;;;;10.88;3.28;;;14.20;99.90;;;;;;5037862;28;20029;-61
2023/05/30 08:33:02;;;;;;;10.88;3.15;;;14.20;99.90;;;;;;5032608;28;20094;-61
2023/05/30 08:35:28;;;;;;;7.43;3.38;;;14.20;99.90;;;;;;5030111;28;20100;-61
2023/05/30 08:37:53;;;;;;;12.43;3.10;;;14.20;99.90;;;;;;5032527;28;20037;-62
2023/05/30 08:40:22;;;;;;;7.70;3.00;;;14.20;99.90;;;;;;5047325;28;20037;-62
2023/05/30 08:42:48;;;;;;;8.05;3.00;;;14.20;99.90;;;;;;5031424;28;20398;-62
2023/05/30 08:45:13;;;;;;;10.48;3.28;;;14.20;99.90;;;;;;5027600;28;20061;-62
2023/05/30 08:47:40;;;;;;;7.10;3.08;;;14.20;99.90;;;;;;5042858;28;20405;-62
2023/05/30 08:50:09;;;;;;;7.35;3.05;;;14.30;99.90;;;;;;5044217;28;20033;-62
2023/05/30 08:52:37;;;;;;;13.93;4.05;;;14.20;99.90;;;;;;5026142;28;20059;-62
2023/05/30 08:55:20;;;;;;;10.13;3.40;;;14.30;99.90;;;;;;5044734;28;20099;-62
2023/05/30 08:57:53;;;;;;;7.85;2.75;;;14.30;99.90;;;;;;5046688;28;20047;-62
2023/05/30 09:00:21;;;;;;;7.35;3.25;;;14.30;99.90;;;;;;5041429;28;20064;-62
2023/05/30 09:02:49;;;;;;;7.88;3.10;;;14.30;99.90;;;;;;5041186;28;20049;-62
2023/05/30 09:05:17;;;;;;;7.75;2.70;;;14.40;99.90;;;;;;5028241;28;20049;-62
2023/05/30 09:07:44;;;;;;;8.27;2.85;;;14.40;99.90;;;;;;5042600;28;20044;-62
2023/05/30 09:10:11;;;;;;;7.57;2.65;;;14.40;99.90;;;;;;5049155;28;20033;-62
2023/05/30 09:12:37;;;;;;;6.78;2.80;;;14.50;99.90;;;;;;5036278;28;20041;-62
2023/05/30 09:15:04;;;;;;;5.93;2.65;;;14.50;99.90;;;;;;5049283;28;20033;-62
2023/05/30 09:17:29;;;;;;;6.03;2.50;;;14.60;99.90;;;;;;5038969;28;20400;-62
2023/05/30 09:19:56;;;;;;;7.80;2.55;;;14.60;99.90;;;;;;5023403;28;20041;-62
2023/05/30 09:22:22;;;;;;;5.13;2.35;;;14.70;99.90;;;;;;5043251;28;20443;-62
2023/05/30 09:25:00;;;;;;;6.25;2.50;;;14.70;99.90;;;;;;5040129;28;20038;-62
2023/05/30 09:27:28;;;;;;;7.00;2.20;;;14.70;99.90;;;;;;5044816;28;20041;-62
2023/05/30 09:29:55;;;;;;;6.35;2.40;;;14.80;99.90;;;;;;5023875;28;20051;-62
2023/05/30 09:32:28;;;;;;;7.15;2.80;;;14.90;99.90;;;;;;5048334;28;20040;-62
2023/05/30 09:34:56;;;;;;;7.25;2.90;;;14.80;99.90;;;;;;5037167;28;20064;-62
2023/05/30 09:37:23;;;;;;;6.60;2.85;;;14.90;99.90;;;;;;5033323;28;20449;-62
2023/05/30 09:40:17;;;;;;;6.05;3.22;;;14.80;99.90;;;;;;5022669;28;20041;-62
2023/05/30 09:42:49;;;;;;;6.80;2.97;;;14.90;99.90;;;;;;5042298;28;20392;-62
2023/05/30 09:45:17;;;;;;;5.13;2.78;;;14.90;99.90;;;;;;5037669;28;20039;-62
2023/05/30 09:47:48;;;;;;;4.18;2.42;;;15.00;99.90;;;;;;5048904;28;20036;-62
2023/05/30 09:50:15;;;;;;;4.95;2.25;;;15.10;99.90;;;;;;5037653;28;20041;-62
2023/05/30 09:52:43;;;;;;;5.28;2.47;;;15.10;99.90;;;;;;5044518;28;20059;-62
2023/05/30 09:55:11;;;;;;;5.00;2.53;;;15.20;99.90;;;;;;5046336;28;20048;-63
2023/05/30 09:57:39;;;;;;;6.97;2.50;;;15.20;99.90;;;;;;5048485;28;20037;-62
2023/05/30 10:00:18;;;;;;;5.43;2.60;;;15.20;99.90;;;;;;5030953;28;20036;-62
2023/05/30 10:02:54;;;;;;;5.63;2.50;;;15.30;99.90;;;;;;5033326;28;20080;-62
2023/05/30 10:05:21;;;;;;;3.72;2.30;;;15.30;99.90;;;;;;5030291;28;20391;-62
2023/05/30 10:07:48;;;;;;;3.83;2.10;;;15.30;99.90;;;;;;5042873;28;20450;-62
2023/05/30 10:10:15;;;;;;;6.40;2.42;;;15.40;99.90;;;;;;5050445;28;20086;-62
2023/05/30 10:12:42;;;;;;;5.97;2.22;;;15.40;99.90;;;;;;5042733;28;20084;-62
2023/05/30 10:15:09;;;;;;;3.97;2.47;;;15.40;99.90;;;;;;5036745;28;20090;-62
2023/05/30 10:17:38;;;;;;;7.05;2.63;;;15.40;99.90;;;;;;5044235;28;20041;-62
2023/05/30 10:20:09;;;;;;;4.72;2.55;;;15.40;99.90;;;;;;5036077;28;20029;-62
2023/05/30 10:22:45;;;;;;;5.27;2.50;;;15.40;99.90;;;;;;5045993;28;20426;-62
2023/05/30 10:25:12;;;;;;;5.60;2.20;;;15.50;99.90;;;;;;5029876;28;20029;-62
2023/05/30 10:28:00;;;;;;;5.82;2.30;;;15.50;99.90;;;;;;5047018;28;20479;-62
2023/05/30 10:30:32;;;;;;;4.65;2.10;;;15.50;99.90;;;;;;5040232;28;20033;-62
2023/05/30 10:33:07;;;;;;;4.07;2.03;;;15.60;99.90;;;;;;5044881;28;20045;-62
2023/05/30 10:35:34;;;;;;;6.43;2.38;;;15.60;99.90;;;;;;5046260;28;20033;-62
2023/05/30 10:38:00;;;;;;;4.45;2.08;;;15.60;99.90;;;;;;5031244;28;20038;-62
2023/05/30 10:40:54;;;;;;;4.70;2.22;;;15.60;99.90;;;;;;5027016;28;20048;-62
2023/05/30 10:43:32;;;;;;;4.43;2.45;;;15.60;99.90;;;;;;5026431;28;20128;-63
2023/05/30 10:46:19;;;;;;;4.53;2.20;;;15.60;99.90;;;;;;5048888;28;20388;-62
2023/05/30 10:48:50;;;;;;;4.68;2.20;;;15.60;99.90;;;;;;5022000;28;20051;-62
2023/05/30 10:51:16;;;;;;;3.92;2.03;;;15.60;99.90;;;;;;5018493;28;20041;-62
2023/05/30 10:53:45;;;;;;;3.97;2.13;;;15.60;99.90;;;;;;5041062;28;20042;-62
2023/05/30 10:56:31;;;;;;;4.63;2.10;;;15.60;99.90;;;;;;5035618;28;20407;-61
2023/05/30 10:58:57;;;;;;;4.63;2.33;;;15.70;99.90;;;;;;5041099;28;20045;-62
2023/05/30 11:01:31;;;;;;;5.03;2.47;;;15.60;99.90;;;;;;5039061;28;20029;-62
2023/05/30 11:04:11;;;;;;;3.67;2.25;;;15.60;99.90;;;;;;5024726;28;20049;-62
2023/05/30 11:06:45;;;;;;;2.75;1.95;;;15.70;99.90;;;;;;5025425;28;20038;-62
2023/05/30 11:09:15;;;;;;;5.32;2.60;;;15.80;99.90;;;;;;5033152;28;20403;-62
2023/05/30 11:11:46;;;;;;;3.97;2.35;;;15.90;99.90;;;;;;5045667;28;20028;-62
2023/05/30 11:14:13;;;;;;;4.63;2.30;;;15.90;99.90;;;;;;5021530;28;20076;-62
2023/05/30 11:16:54;;;;;;;4.65;2.33;;;16.10;99.90;;;;;;5020903;28;20052;-62
2023/05/30 11:19:22;;;;;;;2.67;2.05;;;16.20;99.90;;;;;;5037578;28;20034;-61
2023/05/30 11:21:58;;;;;;;3.33;2.00;;;16.20;99.90;;;;;;5044823;28;20086;-61
2023/05/30 11:24:25;;;;;;;4.22;2.08;;;16.30;99.90;;;;;;5033473;28;20221;-61
2023/05/30 11:27:06;;;;;;;3.78;2.20;;;16.30;99.90;;;;;;5042714;28;20063;-62
2023/05/30 11:29:32;;;;;;;2.63;1.70;;;16.30;99.90;;;;;;5029824;28;20037;-62
2023/05/30 11:31:59;;;;;;;2.70;1.70;;;16.30;99.90;;;;;;5029774;28;20107;-61
2023/05/30 11:34:25;;;;;;;2.65;1.70;;;16.30;99.90;;;;;;5040693;28;20049;-62
2023/05/30 11:36:51;;;;;;;2.05;1.67;;;16.30;99.90;;;;;;5039017;28;20045;-62
2023/05/30 11:39:20;;;;;;;4.22;1.67;;;16.30;99.90;;;;;;5044046;28;20036;-62
2023/05/30 11:41:46;;;;;;;3.17;1.52;;;16.30;99.90;;;;;;5025573;28;20399;-62
2023/05/30 11:44:13;;;;;;;3.20;1.50;;;16.30;99.90;;;;;;5018416;28;20041;-62
2023/05/30 11:46:39;;;;;;;3.42;1.45;;;16.40;99.90;;;;;;5040646;28;20026;-62
2023/05/30 11:49:05;;;;;;;3.33;1.60;;;16.40;99.90;;;;;;5042178;28;20120;-62
2023/05/30 11:51:31;;;;;;;4.10;1.73;;;16.50;99.90;;;;;;5040783;28;20083;-62
2023/05/30 11:54:01;;;;;;;2.65;1.30;;;16.50;99.90;;;;;;5042056;28;20582;-62
2023/05/30 11:56:29;;;;;;;2.72;1.40;;;16.50;99.90;;;;;;5040866;28;20029;-62
2023/05/30 11:58:58;;;;;;;2.55;1.50;;;16.50;99.90;;;;;;5042617;28;20451;-62
2023/05/30 12:01:24;;;;;;;2.45;1.40;;;16.50;99.90;;;;;;5041880;28;20522;-62
2023/05/30 12:03:50;;;;;;;2.42;1.50;;;16.50;99.90;;;;;;5036541;28;20038;-62
2023/05/30 12:06:15;;;;;;;2.05;1.50;;;16.50;99.90;;;;;;5043269;28;20471;-62
2023/05/30 12:08:42;;;;;;;1.42;1.30;;;16.50;99.90;;;;;;5020984;28;20049;-62
2023/05/30 12:11:12;;;;;;;1.40;1.30;;;16.40;99.90;;;;;;5021751;28;20083;-62
2023/05/30 12:13:38;;;;;;;2.58;1.45;;;16.40;99.90;;;;;;5038775;28;20047;-62
2023/05/30 12:16:07;;;;;;;2.72;1.40;;;16.40;99.90;;;;;;5044654;28;20069;-61
2023/05/30 12:18:33;;;;;;;1.45;1.20;;;16.40;99.90;;;;;;5042631;28;20037;-62
2023/05/30 12:21:02;;;;;;;2.63;1.38;;;16.30;99.90;;;;;;5032792;28;20046;-62
2023/05/30 12:23:29;;;;;;;1.30;1.20;;;16.10;99.90;;;;;;5042412;28;20490;-62
2023/05/30 12:25:55;;;;;;;4.22;1.33;;;16.30;99.90;;;;;;5037360;28;20030;-62
2023/05/30 12:28:21;;;;;;;1.40;1.30;;;16.30;99.90;;;;;;5043172;28;20471;-62
2023/05/30 12:30:51;;;;;;;1.58;1.13;;;16.30;99.90;;;;;;5039968;28;20033;-62
2023/05/30 12:33:21;;;;;;;1.83;1.20;;;16.30;99.90;;;;;;5043875;28;20043;-62
2023/05/30 12:35:52;;;;;;;1.40;1.30;;;16.30;99.90;;;;;;5039146;28;20036;-63
2023/05/30 12:38:19;;;;;;;2.33;1.17;;;16.30;99.90;;;;;;5038408;28;20040;-63
2023/05/30 12:40:48;;;;;;;1.75;1.40;;;16.30;99.90;;;;;;5043917;28;20033;-61
2023/05/30 12:43:15;;;;;;;2.80;1.40;;;16.30;99.90;;;;;;5033457;28;20038;-63